sensor_id;sensor_type;location;lat;lon;timestamp;P1;durP1;ratioP1;P2;durP2;ratioP2
9166;SDS011;4618;48.818;9.088;2023-02-22T00:00:32;8.17;;;6.90;;
9166;SDS011;4618;48.818;9.088;2023-02-22T00:03:14;11.73;;;7.20;;
9166;SDS011;4618;48.818;9.088;2023-02-22T00:05:42;12.83;;;7.57;;
9166;SDS011;4618;48.818;9.088;2023-02-22T00:08:13;9.00;;;6.87;;
9166;SDS011;4618;48.818;9.088;2023-02-22T00:10:40;10.97;;;7.67;;
9166;SDS011;4618;48.818;9.088;2023-02-22T00:13:07;14.03;;;7.77;;
9166;SDS011;4618;48.818;9.088;2023-02-22T00:15:34;9.60;;;7.10;;
9166;SDS011;4618;48.818;9.088;2023-02-22T00:18:01;10.63;;;7.50;;
9166;SDS011;4618;48.818;9.088;2023-02-22T00:20:28;11.30;;;7.80;;
9166;SDS011;4618;48.818;9.088;2023-02-22T00:22:54;15.57;;;8.43;;
9166;SDS011;4618;48.818;9.088;2023-02-22T00:25:20;10.90;;;7.80;;
9166;SDS011;4618;48.818;9.088;2023-02-22T00:27:49;13.00;;;8.00;;
9166;SDS011;4618;48.818;9.088;2023-02-22T00:30:20;10.87;;;7.43;;
9166;SDS011;4618;48.818;9.088;2023-02-22T00:32:49;10.23;;;7.70;;
9166;SDS011;4618;48.818;9.088;2023-02-22T00:35:15;15.90;;;7.53;;
9166;SDS011;4618;48.818;9.088;2023-02-22T00:37:42;14.17;;;7.70;;
9166;SDS011;4618;48.818;9.088;2023-02-22T00:40:13;9.17;;;7.13;;
9166;SDS011;4618;48.818;9.088;2023-02-22T00:42:40;11.30;;;7.17;;
9166;SDS011;4618;48.818;9.088;2023-02-22T00:45:06;12.30;;;7.70;;
9166;SDS011;4618;48.818;9.088;2023-02-22T00:47:32;9.67;;;7.70;;
9166;SDS011;4618;48.818;9.088;2023-02-22T00:49:57;14.13;;;7.10;;
9166;SDS011;4618;48.818;9.088;2023-02-22T00:52:24;14.70;;;7.63;;
9166;SDS011;4618;48.818;9.088;2023-02-22T00:54:50;10.67;;;7.03;;
9166;SDS011;4618;48.818;9.088;2023-02-22T00:57:16;12.03;;;7.43;;
9166;SDS011;4618;48.818;9.088;2023-02-22T00:59:43;10.87;;;8.07;;
9166;SDS011;4618;48.818;9.088;2023-02-22T01:02:08;13.60;;;7.87;;
9166;SDS011;4618;48.818;9.088;2023-02-22T01:04:34;12.57;;;7.90;;
9166;SDS011;4618;48.818;9.088;2023-02-22T01:06:59;13.17;;;7.40;;
9166;SDS011;4618;48.818;9.088;2023-02-22T01:09:25;12.07;;;7.17;;
9166;SDS011;4618;48.818;9.088;2023-02-22T01:11:54;10.60;;;7.70;;
9166;SDS011;4618;48.818;9.088;2023-02-22T01:14:20;11.07;;;7.33;;
9166;SDS011;4618;48.818;9.088;2023-02-22T01:16:47;15.63;;;8.20;;
9166;SDS011;4618;48.818;9.088;2023-02-22T01:19:16;11.07;;;7.77;;
9166;SDS011;4618;48.818;9.088;2023-02-22T01:21:42;10.67;;;7.63;;
9166;SDS011;4618;48.818;9.088;2023-02-22T01:24:07;12.60;;;7.90;;
9166;SDS011;4618;48.818;9.088;2023-02-22T01:26:33;11.77;;;7.63;;
9166;SDS011;4618;48.818;9.088;2023-02-22T01:28:59;12.10;;;7.60;;
9166;SDS011;4618;48.818;9.088;2023-02-22T01:31:24;10.30;;;7.40;;
9166;SDS011;4618;48.818;9.088;2023-02-22T01:33:50;14.20;;;7.23;;
9166;SDS011;4618;48.818;9.088;2023-02-22T01:36:16;12.40;;;7.33;;
9166;SDS011;4618;48.818;9.088;2023-02-22T01:38:42;14.37;;;7.47;;
9166;SDS011;4618;48.818;9.088;2023-02-22T01:41:09;13.07;;;7.10;;
9166;SDS011;4618;48.818;9.088;2023-02-22T01:43:36;10.47;;;6.93;;
9166;SDS011;4618;48.818;9.088;2023-02-22T01:46:03;11.93;;;6.90;;
9166;SDS011;4618;48.818;9.088;2023-02-22T01:48:31;10.73;;;7.00;;
9166;SDS011;4618;48.818;9.088;2023-02-22T01:53:39;15.03;;;7.50;;
9166;SDS011;4618;48.818;9.088;2023-02-22T01:56:10;11.93;;;7.00;;
9166;SDS011;4618;48.818;9.088;2023-02-22T01:58:38;10.30;;;6.93;;
9166;SDS011;4618;48.818;9.088;2023-02-22T02:01:07;9.00;;;6.30;;
9166;SDS011;4618;48.818;9.088;2023-02-22T02:03:34;9.43;;;6.97;;
9166;SDS011;4618;48.818;9.088;2023-02-22T02:06:03;9.53;;;6.73;;
9166;SDS011;4618;48.818;9.088;2023-02-22T02:08:36;9.60;;;6.30;;
9166;SDS011;4618;48.818;9.088;2023-02-22T02:11:19;11.13;;;5.90;;
9166;SDS011;4618;48.818;9.088;2023-02-22T02:13:49;9.93;;;7.20;;
9166;SDS011;4618;48.818;9.088;2023-02-22T02:16:19;10.83;;;6.57;;
9166;SDS011;4618;48.818;9.088;2023-02-22T02:18:46;10.67;;;7.70;;
9166;SDS011;4618;48.818;9.088;2023-02-22T02:35:07;14.20;;;7.67;;
9166;SDS011;4618;48.818;9.088;2023-02-22T02:40:29;10.53;;;7.40;;
9166;SDS011;4618;48.818;9.088;2023-02-22T02:43:37;10.50;;;7.30;;
9166;SDS011;4618;48.818;9.088;2023-02-22T02:46:09;11.00;;;7.30;;
9166;SDS011;4618;48.818;9.088;2023-02-22T02:48:41;12.80;;;7.90;;
9166;SDS011;4618;48.818;9.088;2023-02-22T02:51:10;11.50;;;7.60;;
9166;SDS011;4618;48.818;9.088;2023-02-22T02:53:39;13.50;;;7.90;;
9166;SDS011;4618;48.818;9.088;2023-02-22T02:56:08;11.33;;;7.20;;
9166;SDS011;4618;48.818;9.088;2023-02-22T02:58:45;10.80;;;7.97;;
9166;SDS011;4618;48.818;9.088;2023-02-22T03:01:13;12.23;;;7.73;;
9166;SDS011;4618;48.818;9.088;2023-02-22T03:20:29;12.10;;;7.93;;
9166;SDS011;4618;48.818;9.088;2023-02-22T03:23:06;14.03;;;7.93;;
9166;SDS011;4618;48.818;9.088;2023-02-22T03:25:42;12.83;;;7.40;;
9166;SDS011;4618;48.818;9.088;2023-02-22T03:28:15;10.13;;;7.87;;
9166;SDS011;4618;48.818;9.088;2023-02-22T03:30:47;12.03;;;7.60;;
9166;SDS011;4618;48.818;9.088;2023-02-22T03:33:26;12.53;;;8.00;;
9166;SDS011;4618;48.818;9.088;2023-02-22T03:36:02;12.80;;;7.73;;
9166;SDS011;4618;48.818;9.088;2023-02-22T03:38:49;12.40;;;7.30;;
9166;SDS011;4618;48.818;9.088;2023-02-22T03:41:20;14.13;;;7.57;;
9166;SDS011;4618;48.818;9.088;2023-02-22T03:43:49;10.83;;;8.20;;
9166;SDS011;4618;48.818;9.088;2023-02-22T03:46:29;11.17;;;7.53;;
9166;SDS011;4618;48.818;9.088;2023-02-22T03:48:58;11.17;;;7.93;;
9166;SDS011;4618;48.818;9.088;2023-02-22T03:51:34;12.07;;;8.10;;
9166;SDS011;4618;48.818;9.088;2023-02-22T03:54:01;17.00;;;9.23;;
9166;SDS011;4618;48.818;9.088;2023-02-22T03:56:29;13.73;;;8.73;;
9166;SDS011;4618;48.818;9.088;2023-02-22T03:59:09;13.80;;;8.10;;
9166;SDS011;4618;48.818;9.088;2023-02-22T04:01:35;12.87;;;7.77;;
9166;SDS011;4618;48.818;9.088;2023-02-22T04:04:01;8.87;;;7.13;;
9166;SDS011;4618;48.818;9.088;2023-02-22T04:06:28;11.70;;;7.70;;
9166;SDS011;4618;48.818;9.088;2023-02-22T04:08:54;12.67;;;7.27;;
9166;SDS011;4618;48.818;9.088;2023-02-22T04:11:19;12.37;;;7.20;;
9166;SDS011;4618;48.818;9.088;2023-02-22T04:13:45;11.00;;;6.87;;
9166;SDS011;4618;48.818;9.088;2023-02-22T04:16:11;10.53;;;7.00;;
9166;SDS011;4618;48.818;9.088;2023-02-22T04:18:36;10.80;;;7.03;;
9166;SDS011;4618;48.818;9.088;2023-02-22T04:21:02;12.53;;;7.20;;
9166;SDS011;4618;48.818;9.088;2023-02-22T04:23:28;14.67;;;7.70;;
9166;SDS011;4618;48.818;9.088;2023-02-22T04:25:54;10.23;;;7.27;;
9166;SDS011;4618;48.818;9.088;2023-02-22T04:28:19;10.93;;;7.63;;
9166;SDS011;4618;48.818;9.088;2023-02-22T04:30:45;11.47;;;7.77;;
9166;SDS011;4618;48.818;9.088;2023-02-22T04:33:11;10.97;;;7.70;;
9166;SDS011;4618;48.818;9.088;2023-02-22T04:35:37;12.37;;;7.47;;
9166;SDS011;4618;48.818;9.088;2023-02-22T04:38:03;12.03;;;7.47;;
9166;SDS011;4618;48.818;9.088;2023-02-22T04:40:29;11.70;;;7.10;;
9166;SDS011;4618;48.818;9.088;2023-02-22T04:42:54;13.97;;;7.33;;
9166;SDS011;4618;48.818;9.088;2023-02-22T04:45:20;10.37;;;7.90;;
9166;SDS011;4618;48.818;9.088;2023-02-22T04:47:46;12.13;;;7.87;;
9166;SDS011;4618;48.818;9.088;2023-02-22T04:50:12;9.70;;;7.20;;
9166;SDS011;4618;48.818;9.088;2023-02-22T04:52:38;13.70;;;8.00;;
9166;SDS011;4618;48.818;9.088;2023-02-22T04:55:04;12.00;;;7.47;;
9166;SDS011;4618;48.818;9.088;2023-02-22T04:57:30;13.37;;;7.17;;
9166;SDS011;4618;48.818;9.088;2023-02-22T04:59:56;11.83;;;7.43;;
9166;SDS011;4618;48.818;9.088;2023-02-22T05:02:21;11.80;;;7.83;;
9166;SDS011;4618;48.818;9.088;2023-02-22T05:04:47;8.27;;;6.53;;
9166;SDS011;4618;48.818;9.088;2023-02-22T05:07:13;12.23;;;6.80;;
9166;SDS011;4618;48.818;9.088;2023-02-22T05:09:39;12.07;;;7.07;;
9166;SDS011;4618;48.818;9.088;2023-02-22T05:12:04;10.63;;;8.00;;
9166;SDS011;4618;48.818;9.088;2023-02-22T05:14:30;10.80;;;7.90;;
9166;SDS011;4618;48.818;9.088;2023-02-22T05:16:56;11.50;;;6.90;;
9166;SDS011;4618;48.818;9.088;2023-02-22T05:19:22;15.90;;;7.50;;
9166;SDS011;4618;48.818;9.088;2023-02-22T05:21:48;13.03;;;7.53;;
9166;SDS011;4618;48.818;9.088;2023-02-22T05:24:13;11.50;;;7.60;;
9166;SDS011;4618;48.818;9.088;2023-02-22T05:26:39;12.80;;;7.97;;
9166;SDS011;4618;48.818;9.088;2023-02-22T05:29:06;11.23;;;7.63;;
9166;SDS011;4618;48.818;9.088;2023-02-22T05:31:31;13.03;;;7.80;;
9166;SDS011;4618;48.818;9.088;2023-02-22T05:33:57;11.90;;;8.13;;
9166;SDS011;4618;48.818;9.088;2023-02-22T05:36:23;12.70;;;7.77;;
9166;SDS011;4618;48.818;9.088;2023-02-22T05:38:49;9.77;;;7.30;;
9166;SDS011;4618;48.818;9.088;2023-02-22T05:41:14;11.27;;;7.43;;
9166;SDS011;4618;48.818;9.088;2023-02-22T05:43:40;10.87;;;7.37;;
9166;SDS011;4618;48.818;9.088;2023-02-22T05:46:06;12.07;;;6.70;;
9166;SDS011;4618;48.818;9.088;2023-02-22T05:48:32;7.93;;;6.80;;
9166;SDS011;4618;48.818;9.088;2023-02-22T05:50:58;11.30;;;7.20;;
9166;SDS011;4618;48.818;9.088;2023-02-22T05:53:23;11.77;;;7.13;;
9166;SDS011;4618;48.818;9.088;2023-02-22T05:55:49;11.60;;;7.40;;
9166;SDS011;4618;48.818;9.088;2023-02-22T05:58:15;10.90;;;7.77;;
9166;SDS011;4618;48.818;9.088;2023-02-22T06:00:41;11.27;;;7.37;;
9166;SDS011;4618;48.818;9.088;2023-02-22T06:03:07;11.60;;;7.27;;
9166;SDS011;4618;48.818;9.088;2023-02-22T06:05:35;8.47;;;6.70;;
9166;SDS011;4618;48.818;9.088;2023-02-22T06:08:01;8.30;;;6.60;;
9166;SDS011;4618;48.818;9.088;2023-02-22T06:10:28;13.30;;;8.30;;
9166;SDS011;4618;48.818;9.088;2023-02-22T06:12:54;13.90;;;8.57;;
9166;SDS011;4618;48.818;9.088;2023-02-22T06:15:21;17.73;;;9.77;;
9166;SDS011;4618;48.818;9.088;2023-02-22T06:17:49;14.17;;;9.03;;
9166;SDS011;4618;48.818;9.088;2023-02-22T06:20:16;13.70;;;8.73;;
9166;SDS011;4618;48.818;9.088;2023-02-22T06:22:45;19.87;;;9.90;;
9166;SDS011;4618;48.818;9.088;2023-02-22T06:25:12;12.00;;;9.77;;
9166;SDS011;4618;48.818;9.088;2023-02-22T06:27:39;15.77;;;10.00;;
9166;SDS011;4618;48.818;9.088;2023-02-22T06:30:05;16.77;;;10.37;;
9166;SDS011;4618;48.818;9.088;2023-02-22T06:32:31;17.03;;;9.33;;
9166;SDS011;4618;48.818;9.088;2023-02-22T06:34:56;13.80;;;9.03;;
9166;SDS011;4618;48.818;9.088;2023-02-22T06:37:22;13.80;;;9.30;;
9166;SDS011;4618;48.818;9.088;2023-02-22T06:39:47;13.23;;;9.30;;
9166;SDS011;4618;48.818;9.088;2023-02-22T06:42:13;14.13;;;9.20;;
9166;SDS011;4618;48.818;9.088;2023-02-22T06:44:39;13.27;;;8.67;;
9166;SDS011;4618;48.818;9.088;2023-02-22T06:47:05;12.97;;;8.97;;
9166;SDS011;4618;48.818;9.088;2023-02-22T06:49:31;15.23;;;10.17;;
9166;SDS011;4618;48.818;9.088;2023-02-22T06:51:56;15.77;;;10.03;;
9166;SDS011;4618;48.818;9.088;2023-02-22T06:54:22;15.57;;;10.30;;
9166;SDS011;4618;48.818;9.088;2023-02-22T06:56:48;13.60;;;10.17;;
9166;SDS011;4618;48.818;9.088;2023-02-22T06:59:14;16.77;;;9.97;;
9166;SDS011;4618;48.818;9.088;2023-02-22T07:01:40;12.17;;;9.43;;
9166;SDS011;4618;48.818;9.088;2023-02-22T07:04:07;14.37;;;9.70;;
9166;SDS011;4618;48.818;9.088;2023-02-22T07:06:33;15.10;;;10.47;;
9166;SDS011;4618;48.818;9.088;2023-02-22T07:08:58;16.00;;;9.67;;
9166;SDS011;4618;48.818;9.088;2023-02-22T07:11:25;13.23;;;9.90;;
9166;SDS011;4618;48.818;9.088;2023-02-22T07:13:50;15.17;;;9.60;;
9166;SDS011;4618;48.818;9.088;2023-02-22T07:16:16;20.80;;;12.40;;
9166;SDS011;4618;48.818;9.088;2023-02-22T07:18:41;16.53;;;12.20;;
9166;SDS011;4618;48.818;9.088;2023-02-22T07:21:07;18.60;;;10.20;;
9166;SDS011;4618;48.818;9.088;2023-02-22T07:23:33;16.87;;;10.80;;
9166;SDS011;4618;48.818;9.088;2023-02-22T07:26:00;13.17;;;9.53;;
9166;SDS011;4618;48.818;9.088;2023-02-22T07:28:26;14.40;;;9.17;;
9166;SDS011;4618;48.818;9.088;2023-02-22T07:30:51;16.63;;;9.00;;
9166;SDS011;4618;48.818;9.088;2023-02-22T07:33:17;12.10;;;8.07;;
9166;SDS011;4618;48.818;9.088;2023-02-22T07:35:43;13.10;;;8.10;;
9166;SDS011;4618;48.818;9.088;2023-02-22T07:38:10;11.00;;;8.10;;
9166;SDS011;4618;48.818;9.088;2023-02-22T07:40:37;10.63;;;7.73;;
9166;SDS011;4618;48.818;9.088;2023-02-22T07:43:04;12.40;;;7.60;;
9166;SDS011;4618;48.818;9.088;2023-02-22T07:45:38;12.73;;;7.80;;
9166;SDS011;4618;48.818;9.088;2023-02-22T07:48:04;13.30;;;7.50;;
9166;SDS011;4618;48.818;9.088;2023-02-22T07:50:31;11.83;;;7.57;;
9166;SDS011;4618;48.818;9.088;2023-02-22T07:52:58;12.83;;;7.40;;
9166;SDS011;4618;48.818;9.088;2023-02-22T07:55:28;9.03;;;7.53;;
9166;SDS011;4618;48.818;9.088;2023-02-22T07:57:56;14.43;;;7.67;;
9166;SDS011;4618;48.818;9.088;2023-02-22T08:00:24;10.90;;;7.70;;
9166;SDS011;4618;48.818;9.088;2023-02-22T08:03:09;13.80;;;8.07;;
9166;SDS011;4618;48.818;9.088;2023-02-22T08:05:37;16.90;;;8.80;;
9166;SDS011;4618;48.818;9.088;2023-02-22T08:08:04;11.17;;;7.70;;
9166;SDS011;4618;48.818;9.088;2023-02-22T08:10:30;17.43;;;7.90;;
9166;SDS011;4618;48.818;9.088;2023-02-22T08:12:57;19.13;;;8.13;;
9166;SDS011;4618;48.818;9.088;2023-02-22T08:15:24;12.97;;;7.50;;
9166;SDS011;4618;48.818;9.088;2023-02-22T08:17:55;12.43;;;7.90;;
9166;SDS011;4618;48.818;9.088;2023-02-22T08:20:22;15.17;;;7.67;;
9166;SDS011;4618;48.818;9.088;2023-02-22T08:22:48;11.77;;;7.10;;
9166;SDS011;4618;48.818;9.088;2023-02-22T08:25:15;12.43;;;8.20;;
9166;SDS011;4618;48.818;9.088;2023-02-22T08:27:42;13.63;;;7.47;;
9166;SDS011;4618;48.818;9.088;2023-02-22T08:30:19;12.27;;;7.73;;
9166;SDS011;4618;48.818;9.088;2023-02-22T08:32:47;12.77;;;8.17;;
9166;SDS011;4618;48.818;9.088;2023-02-22T08:35:14;13.27;;;7.90;;
9166;SDS011;4618;48.818;9.088;2023-02-22T08:37:44;11.27;;;7.33;;
9166;SDS011;4618;48.818;9.088;2023-02-22T08:40:12;15.10;;;7.03;;
9166;SDS011;4618;48.818;9.088;2023-02-22T08:42:38;14.83;;;7.73;;
9166;SDS011;4618;48.818;9.088;2023-02-22T08:45:04;15.50;;;7.90;;
9166;SDS011;4618;48.818;9.088;2023-02-22T08:47:30;14.17;;;8.00;;
9166;SDS011;4618;48.818;9.088;2023-02-22T08:49:55;14.47;;;7.03;;
9166;SDS011;4618;48.818;9.088;2023-02-22T08:52:21;12.20;;;7.57;;
9166;SDS011;4618;48.818;9.088;2023-02-22T08:54:46;13.37;;;7.93;;
9166;SDS011;4618;48.818;9.088;2023-02-22T08:57:12;14.97;;;7.70;;
9166;SDS011;4618;48.818;9.088;2023-02-22T08:59:38;12.13;;;8.00;;
9166;SDS011;4618;48.818;9.088;2023-02-22T09:02:04;10.67;;;6.30;;
9166;SDS011;4618;48.818;9.088;2023-02-22T09:04:30;10.27;;;6.00;;
9166;SDS011;4618;48.818;9.088;2023-02-22T09:06:56;8.60;;;5.27;;
9166;SDS011;4618;48.818;9.088;2023-02-22T09:09:21;11.67;;;5.70;;
9166;SDS011;4618;48.818;9.088;2023-02-22T09:11:47;8.67;;;5.30;;
9166;SDS011;4618;48.818;9.088;2023-02-22T09:14:13;9.33;;;5.70;;
9166;SDS011;4618;48.818;9.088;2023-02-22T09:16:40;14.13;;;5.77;;
9166;SDS011;4618;48.818;9.088;2023-02-22T09:19:07;7.33;;;5.60;;
9166;SDS011;4618;48.818;9.088;2023-02-22T09:21:32;7.90;;;5.00;;
9166;SDS011;4618;48.818;9.088;2023-02-22T09:23:58;7.73;;;5.33;;
9166;SDS011;4618;48.818;9.088;2023-02-22T09:26:32;6.13;;;4.90;;
9166;SDS011;4618;48.818;9.088;2023-02-22T09:29:03;8.03;;;5.20;;
9166;SDS011;4618;48.818;9.088;2023-02-22T09:31:33;9.17;;;5.30;;
9166;SDS011;4618;48.818;9.088;2023-02-22T09:33:59;5.23;;;4.57;;
9166;SDS011;4618;48.818;9.088;2023-02-22T09:36:25;8.60;;;4.97;;
9166;SDS011;4618;48.818;9.088;2023-02-22T09:38:50;7.97;;;5.00;;
9166;SDS011;4618;48.818;9.088;2023-02-22T09:41:23;5.78;;;5.13;;
9166;SDS011;4618;48.818;9.088;2023-02-22T09:44:05;6.95;;;4.97;;
9166;SDS011;4618;48.818;9.088;2023-02-22T09:46:38;5.82;;;4.72;;
9166;SDS011;4618;48.818;9.088;2023-02-22T09:52:21;5.30;;;4.80;;
9166;SDS011;4618;48.818;9.088;2023-02-22T09:54:32;5.55;;;4.70;;
9166;SDS011;4618;48.818;9.088;2023-02-22T09:57:04;7.78;;;5.15;;
9166;SDS011;4618;48.818;9.088;2023-02-22T09:59:38;4.85;;;4.30;;
9166;SDS011;4618;48.818;9.088;2023-02-22T10:05:08;5.57;;;4.97;;
9166;SDS011;4618;48.818;9.088;2023-02-22T10:07:54;6.40;;;5.05;;
9166;SDS011;4618;48.818;9.088;2023-02-22T10:10:24;6.72;;;4.60;;
9166;SDS011;4618;48.818;9.088;2023-02-22T10:15:49;7.05;;;4.25;;
9166;SDS011;4618;48.818;9.088;2023-02-22T10:18:24;5.95;;;4.80;;
9166;SDS011;4618;48.818;9.088;2023-02-22T10:26:25;6.35;;;4.90;;
9166;SDS011;4618;48.818;9.088;2023-02-22T10:29:05;5.60;;;5.10;;
9166;SDS011;4618;48.818;9.088;2023-02-22T10:31:57;6.70;;;5.90;;
9166;SDS011;4618;48.818;9.088;2023-02-22T10:34:25;7.20;;;4.72;;
9166;SDS011;4618;48.818;9.088;2023-02-22T10:36:55;7.68;;;5.53;;
9166;SDS011;4618;48.818;9.088;2023-02-22T10:39:32;8.32;;;5.40;;
9166;SDS011;4618;48.818;9.088;2023-02-22T10:42:07;7.40;;;5.35;;
9166;SDS011;4618;48.818;9.088;2023-02-22T10:44:34;6.30;;;5.55;;
9166;SDS011;4618;48.818;9.088;2023-02-22T10:47:02;7.18;;;6.47;;
9166;SDS011;4618;48.818;9.088;2023-02-22T10:49:46;9.60;;;5.97;;
9166;SDS011;4618;48.818;9.088;2023-02-22T10:52:31;7.75;;;5.78;;
9166;SDS011;4618;48.818;9.088;2023-02-22T10:54:58;7.57;;;6.35;;
9166;SDS011;4618;48.818;9.088;2023-02-22T10:57:29;6.75;;;6.10;;
9166;SDS011;4618;48.818;9.088;2023-02-22T10:59:57;9.35;;;6.32;;
9166;SDS011;4618;48.818;9.088;2023-02-22T11:02:57;7.68;;;6.68;;
9166;SDS011;4618;48.818;9.088;2023-02-22T11:05:25;9.60;;;7.07;;
9166;SDS011;4618;48.818;9.088;2023-02-22T11:08:12;9.35;;;6.88;;
9166;SDS011;4618;48.818;9.088;2023-02-22T11:10:40;7.75;;;6.88;;
9166;SDS011;4618;48.818;9.088;2023-02-22T11:13:23;9.68;;;7.38;;
9166;SDS011;4618;48.818;9.088;2023-02-22T11:15:52;8.80;;;7.88;;
9166;SDS011;4618;48.818;9.088;2023-02-22T11:18:23;9.38;;;8.48;;
9166;SDS011;4618;48.818;9.088;2023-02-22T11:20:58;14.45;;;8.85;;
9166;SDS011;4618;48.818;9.088;2023-02-22T11:23:25;10.20;;;9.10;;
9166;SDS011;4618;48.818;9.088;2023-02-22T11:25:59;10.23;;;8.67;;
9166;SDS011;4618;48.818;9.088;2023-02-22T11:28:31;10.57;;;9.07;;
9166;SDS011;4618;48.818;9.088;2023-02-22T11:31:07;11.00;;;8.80;;
9166;SDS011;4618;48.818;9.088;2023-02-22T11:33:33;10.27;;;8.33;;
9166;SDS011;4618;48.818;9.088;2023-02-22T11:35:59;10.68;;;8.73;;
9166;SDS011;4618;48.818;9.088;2023-02-22T11:38:32;11.07;;;9.85;;
9166;SDS011;4618;48.818;9.088;2023-02-22T11:41:25;10.52;;;9.10;;
9166;SDS011;4618;48.818;9.088;2023-02-22T11:43:53;11.57;;;8.13;;
9166;SDS011;4618;48.818;9.088;2023-02-22T11:46:19;9.02;;;7.95;;
9166;SDS011;4618;48.818;9.088;2023-02-22T11:56:55;9.63;;;8.63;;
9166;SDS011;4618;48.818;9.088;2023-02-22T11:59:37;12.97;;;8.80;;
9166;SDS011;4618;48.818;9.088;2023-02-22T12:03:00;10.37;;;9.30;;
9166;SDS011;4618;48.818;9.088;2023-02-22T12:05:54;11.10;;;9.43;;
9166;SDS011;4618;48.818;9.088;2023-02-22T12:10:59;10.00;;;9.00;;
9166;SDS011;4618;48.818;9.088;2023-02-22T12:14:03;10.47;;;9.43;;
9166;SDS011;4618;48.818;9.088;2023-02-22T12:17:04;10.77;;;9.67;;
9166;SDS011;4618;48.818;9.088;2023-02-22T12:22:30;10.77;;;9.70;;
9166;SDS011;4618;48.818;9.088;2023-02-22T12:25:03;10.83;;;9.73;;
9166;SDS011;4618;48.818;9.088;2023-02-22T12:27:46;10.70;;;9.50;;
9166;SDS011;4618;48.818;9.088;2023-02-22T12:32:54;12.30;;;9.70;;
9166;SDS011;4618;48.818;9.088;2023-02-22T12:35:36;10.30;;;9.13;;
9166;SDS011;4618;48.818;9.088;2023-02-22T12:38:19;10.10;;;8.83;;
9166;SDS011;4618;48.818;9.088;2023-02-22T12:41:04;10.53;;;9.30;;
9166;SDS011;4618;48.818;9.088;2023-02-22T12:43:49;12.40;;;8.73;;
9166;SDS011;4618;48.818;9.088;2023-02-22T12:51:30;9.90;;;8.63;;
9166;SDS011;4618;48.818;9.088;2023-02-22T12:54:05;10.40;;;8.93;;
9166;SDS011;4618;48.818;9.088;2023-02-22T12:56:50;9.77;;;8.60;;
9166;SDS011;4618;48.818;9.088;2023-02-22T13:04:39;11.55;;;8.48;;
9166;SDS011;4618;48.818;9.088;2023-02-22T13:09:55;9.73;;;8.68;;
9166;SDS011;4618;48.818;9.088;2023-02-22T13:20:58;9.57;;;8.57;;
9166;SDS011;4618;48.818;9.088;2023-02-22T13:28:45;9.32;;;8.52;;
9166;SDS011;4618;48.818;9.088;2023-02-22T13:53:23;10.10;;;8.73;;
9166;SDS011;4618;48.818;9.088;2023-02-22T13:55:52;11.27;;;9.47;;
9166;SDS011;4618;48.818;9.088;2023-02-22T13:58:21;9.93;;;8.93;;
9166;SDS011;4618;48.818;9.088;2023-02-22T14:03:38;11.50;;;10.33;;
9166;SDS011;4618;48.818;9.088;2023-02-22T14:06:05;12.17;;;9.83;;
9166;SDS011;4618;48.818;9.088;2023-02-22T14:10:59;13.53;;;10.60;;
9166;SDS011;4618;48.818;9.088;2023-02-22T14:13:29;14.90;;;10.20;;
9166;SDS011;4618;48.818;9.088;2023-02-22T14:21:16;13.70;;;9.97;;
9166;SDS011;4618;48.818;9.088;2023-02-22T14:23:53;13.77;;;10.00;;
9166;SDS011;4618;48.818;9.088;2023-02-22T14:26:30;12.57;;;9.47;;
9166;SDS011;4618;48.818;9.088;2023-02-22T14:28:59;16.03;;;9.47;;
9166;SDS011;4618;48.818;9.088;2023-02-22T14:34:20;11.80;;;9.90;;
9166;SDS011;4618;48.818;9.088;2023-02-22T14:37:05;13.90;;;10.47;;
9166;SDS011;4618;48.818;9.088;2023-02-22T14:45:04;13.77;;;10.23;;
9166;SDS011;4618;48.818;9.088;2023-02-22T14:58:39;12.43;;;10.20;;
9166;SDS011;4618;48.818;9.088;2023-02-22T15:01:42;14.00;;;9.90;;
9166;SDS011;4618;48.818;9.088;2023-02-22T15:04:21;13.43;;;9.70;;
9166;SDS011;4618;48.818;9.088;2023-02-22T15:06:47;13.40;;;10.00;;
9166;SDS011;4618;48.818;9.088;2023-02-22T15:11:51;10.90;;;9.80;;
9166;SDS011;4618;48.818;9.088;2023-02-22T15:14:37;10.63;;;9.60;;
9166;SDS011;4618;48.818;9.088;2023-02-22T15:17:23;14.83;;;10.47;;
9166;SDS011;4618;48.818;9.088;2023-02-22T15:19:49;11.07;;;9.33;;
9166;SDS011;4618;48.818;9.088;2023-02-22T15:22:34;14.53;;;10.47;;
9166;SDS011;4618;48.818;9.088;2023-02-22T15:25:03;13.93;;;10.47;;
9166;SDS011;4618;48.818;9.088;2023-02-22T15:27:30;14.27;;;10.30;;
9166;SDS011;4618;48.818;9.088;2023-02-22T15:30:01;12.20;;;10.13;;
9166;SDS011;4618;48.818;9.088;2023-02-22T15:32:38;12.77;;;10.20;;
9166;SDS011;4618;48.818;9.088;2023-02-22T15:35:15;12.00;;;9.93;;
9166;SDS011;4618;48.818;9.088;2023-02-22T15:37:56;13.17;;;10.23;;
9166;SDS011;4618;48.818;9.088;2023-02-22T15:40:26;13.30;;;10.90;;
9166;SDS011;4618;48.818;9.088;2023-02-22T15:42:57;12.97;;;10.50;;
9166;SDS011;4618;48.818;9.088;2023-02-22T15:45:27;14.20;;;12.07;;
9166;SDS011;4618;48.818;9.088;2023-02-22T15:47:53;17.37;;;10.50;;
9166;SDS011;4618;48.818;9.088;2023-02-22T15:50:29;29.87;;;12.40;;
9166;SDS011;4618;48.818;9.088;2023-02-22T15:58:11;18.03;;;11.03;;
9166;SDS011;4618;48.818;9.088;2023-02-22T16:01:01;14.27;;;10.93;;
9166;SDS011;4618;48.818;9.088;2023-02-22T16:03:37;21.00;;;10.93;;
9166;SDS011;4618;48.818;9.088;2023-02-22T16:06:20;16.30;;;11.43;;
9166;SDS011;4618;48.818;9.088;2023-02-22T16:08:49;16.17;;;11.17;;
9166;SDS011;4618;48.818;9.088;2023-02-22T16:11:20;16.50;;;10.53;;
9166;SDS011;4618;48.818;9.088;2023-02-22T16:13:56;14.43;;;10.40;;
9166;SDS011;4618;48.818;9.088;2023-02-22T16:16:30;22.50;;;11.03;;
9166;SDS011;4618;48.818;9.088;2023-02-22T16:22:04;14.80;;;10.47;;
9166;SDS011;4618;48.818;9.088;2023-02-22T16:24:37;14.03;;;10.87;;
9166;SDS011;4618;48.818;9.088;2023-02-22T16:27:24;13.67;;;10.53;;
9166;SDS011;4618;48.818;9.088;2023-02-22T16:30:03;11.93;;;10.27;;
9166;SDS011;4618;48.818;9.088;2023-02-22T16:32:29;13.43;;;10.57;;
9166;SDS011;4618;48.818;9.088;2023-02-22T16:34:54;15.07;;;11.10;;
9166;SDS011;4618;48.818;9.088;2023-02-22T16:37:20;14.87;;;10.73;;
9166;SDS011;4618;48.818;9.088;2023-02-22T16:39:47;11.90;;;9.80;;
9166;SDS011;4618;48.818;9.088;2023-02-22T16:42:15;13.60;;;10.87;;
9166;SDS011;4618;48.818;9.088;2023-02-22T16:44:48;14.47;;;10.00;;
9166;SDS011;4618;48.818;9.088;2023-02-22T16:47:15;13.47;;;10.70;;
9166;SDS011;4618;48.818;9.088;2023-02-22T16:49:41;16.23;;;10.07;;
9166;SDS011;4618;48.818;9.088;2023-02-22T16:52:06;14.70;;;10.43;;
9166;SDS011;4618;48.818;9.088;2023-02-22T16:54:33;16.60;;;10.60;;
9166;SDS011;4618;48.818;9.088;2023-02-22T16:57:14;14.47;;;9.80;;
9166;SDS011;4618;48.818;9.088;2023-02-22T16:59:43;14.53;;;9.93;;
9166;SDS011;4618;48.818;9.088;2023-02-22T17:02:14;16.80;;;10.87;;
9166;SDS011;4618;48.818;9.088;2023-02-22T17:04:40;17.53;;;10.57;;
9166;SDS011;4618;48.818;9.088;2023-02-22T17:07:13;20.33;;;10.00;;
9166;SDS011;4618;48.818;9.088;2023-02-22T17:09:53;16.53;;;9.77;;
9166;SDS011;4618;48.818;9.088;2023-02-22T17:12:22;17.03;;;11.53;;
9166;SDS011;4618;48.818;9.088;2023-02-22T17:14:49;13.80;;;10.83;;
9166;SDS011;4618;48.818;9.088;2023-02-22T17:17:15;13.60;;;11.00;;
9166;SDS011;4618;48.818;9.088;2023-02-22T17:19:41;13.87;;;10.80;;
9166;SDS011;4618;48.818;9.088;2023-02-22T17:22:08;15.10;;;11.13;;
9166;SDS011;4618;48.818;9.088;2023-02-22T17:24:41;14.63;;;11.00;;
9166;SDS011;4618;48.818;9.088;2023-02-22T17:27:06;15.40;;;11.20;;
9166;SDS011;4618;48.818;9.088;2023-02-22T17:29:32;14.37;;;11.80;;
9166;SDS011;4618;48.818;9.088;2023-02-22T17:31:57;19.00;;;11.17;;
9166;SDS011;4618;48.818;9.088;2023-02-22T17:34:23;17.13;;;11.93;;
9166;SDS011;4618;48.818;9.088;2023-02-22T17:36:49;16.67;;;11.07;;
9166;SDS011;4618;48.818;9.088;2023-02-22T17:39:14;16.93;;;11.17;;
9166;SDS011;4618;48.818;9.088;2023-02-22T17:41:40;17.33;;;11.83;;
9166;SDS011;4618;48.818;9.088;2023-02-22T17:44:05;18.00;;;12.60;;
9166;SDS011;4618;48.818;9.088;2023-02-22T17:46:31;17.53;;;11.73;;
9166;SDS011;4618;48.818;9.088;2023-02-22T17:48:57;20.33;;;12.07;;
9166;SDS011;4618;48.818;9.088;2023-02-22T17:51:23;15.37;;;11.23;;
9166;SDS011;4618;48.818;9.088;2023-02-22T17:53:50;17.63;;;12.07;;